sensor_id;sensor_type;location;lat;lon;timestamp;temperature;humidity
6375;DHT22;35400;45.472;-122.822;2022-07-05T00:01:22;25.70;77.80
6375;DHT22;35400;45.472;-122.822;2022-07-05T00:03:48;25.60;75.60
6375;DHT22;35400;45.472;-122.822;2022-07-05T00:06:15;25.60;76.70
6375;DHT22;35400;45.472;-122.822;2022-07-05T00:08:41;25.50;76.10
6375;DHT22;35400;45.472;-122.822;2022-07-05T00:11:07;25.50;76.20
6375;DHT22;35400;45.472;-122.822;2022-07-05T00:13:34;25.50;76.40
6375;DHT22;35400;45.472;-122.822;2022-07-05T00:16:01;25.50;75.90
6375;DHT22;35400;45.472;-122.822;2022-07-05T00:18:27;25.50;76.50
6375;DHT22;35400;45.472;-122.822;2022-07-05T00:20:53;25.40;76.40
6375;DHT22;35400;45.472;-122.822;2022-07-05T00:23:20;25.40;76.50
6375;DHT22;35400;45.472;-122.822;2022-07-05T00:25:46;25.40;76.20
6375;DHT22;35400;45.472;-122.822;2022-07-05T00:28:13;25.40;75.50
6375;DHT22;35400;45.472;-122.822;2022-07-05T00:30:41;25.40;75.40
6375;DHT22;35400;45.472;-122.822;2022-07-05T00:33:07;25.30;75.70
6375;DHT22;35400;45.472;-122.822;2022-07-05T00:35:34;25.20;75.70
6375;DHT22;35400;45.472;-122.822;2022-07-05T00:38:00;25.10;75.80
6375;DHT22;35400;45.472;-122.822;2022-07-05T00:40:27;25.10;75.50
6375;DHT22;35400;45.472;-122.822;2022-07-05T00:42:53;25.00;75.50
6375;DHT22;35400;45.472;-122.822;2022-07-05T00:45:19;25.00;76.40
6375;DHT22;35400;45.472;-122.822;2022-07-05T00:47:47;24.90;76.40
6375;DHT22;35400;45.472;-122.822;2022-07-05T00:50:13;24.90;77.30
6375;DHT22;35400;45.472;-122.822;2022-07-05T00:52:40;24.80;77.30
6375;DHT22;35400;45.472;-122.822;2022-07-05T00:55:07;24.80;77.20
6375;DHT22;35400;45.472;-122.822;2022-07-05T00:57:34;24.80;76.50
6375;DHT22;35400;45.472;-122.822;2022-07-05T01:00:01;24.70;75.70
6375;DHT22;35400;45.472;-122.822;2022-07-05T01:02:27;24.70;75.00
6375;DHT22;35400;45.472;-122.822;2022-07-05T01:04:54;24.70;75.30
6375;DHT22;35400;45.472;-122.822;2022-07-05T01:07:22;24.60;76.00
6375;DHT22;35400;45.472;-122.822;2022-07-05T01:09:50;24.60;77.00
6375;DHT22;35400;45.472;-122.822;2022-07-05T01:12:17;24.50;77.10
6375;DHT22;35400;45.472;-122.822;2022-07-05T01:14:44;24.50;77.00
6375;DHT22;35400;45.472;-122.822;2022-07-05T01:17:11;24.40;75.80
6375;DHT22;35400;45.472;-122.822;2022-07-05T01:19:38;24.40;75.50
6375;DHT22;35400;45.472;-122.822;2022-07-05T01:22:15;24.30;75.90
6375;DHT22;35400;45.472;-122.822;2022-07-05T01:24:43;24.30;76.30
6375;DHT22;35400;45.472;-122.822;2022-07-05T01:27:09;24.30;76.20
6375;DHT22;35400;45.472;-122.822;2022-07-05T01:29:36;24.30;76.40
6375;DHT22;35400;45.472;-122.822;2022-07-05T01:32:03;24.30;76.60
6375;DHT22;35400;45.472;-122.822;2022-07-05T01:34:29;24.30;76.70
6375;DHT22;35400;45.472;-122.822;2022-07-05T01:36:56;24.20;76.00
6375;DHT22;35400;45.472;-122.822;2022-07-05T01:39:22;24.20;76.50
6375;DHT22;35400;45.472;-122.822;2022-07-05T01:41:49;24.20;76.70
6375;DHT22;35400;45.472;-122.822;2022-07-05T01:44:15;24.10;77.00
6375;DHT22;35400;45.472;-122.822;2022-07-05T01:46:42;24.10;76.20
6375;DHT22;35400;45.472;-122.822;2022-07-05T01:49:11;24.10;76.30
6375;DHT22;35400;45.472;-122.822;2022-07-05T01:51:44;24.10;76.90
6375;DHT22;35400;45.472;-122.822;2022-07-05T01:54:13;24.00;76.70
6375;DHT22;35400;45.472;-122.822;2022-07-05T01:56:39;24.00;76.90
6375;DHT22;35400;45.472;-122.822;2022-07-05T01:59:06;23.90;77.60
6375;DHT22;35400;45.472;-122.822;2022-07-05T02:01:38;23.90;77.60
6375;DHT22;35400;45.472;-122.822;2022-07-05T02:04:08;23.80;77.20
6375;DHT22;35400;45.472;-122.822;2022-07-05T02:06:35;23.80;76.80
6375;DHT22;35400;45.472;-122.822;2022-07-05T02:09:04;23.80;77.60
6375;DHT22;35400;45.472;-122.822;2022-07-05T02:11:31;23.70;78.60
6375;DHT22;35400;45.472;-122.822;2022-07-05T02:13:58;23.70;81.00
6375;DHT22;35400;45.472;-122.822;2022-07-05T02:16:26;23.70;82.10
6375;DHT22;35400;45.472;-122.822;2022-07-05T02:18:53;23.70;83.40
6375;DHT22;35400;45.472;-122.822;2022-07-05T02:21:19;23.60;83.80
6375;DHT22;35400;45.472;-122.822;2022-07-05T02:23:46;23.60;84.30
6375;DHT22;35400;45.472;-122.822;2022-07-05T02:26:12;23.60;85.10
6375;DHT22;35400;45.472;-122.822;2022-07-05T02:28:39;23.50;85.10
6375;DHT22;35400;45.472;-122.822;2022-07-05T02:31:05;23.50;85.70
6375;DHT22;35400;45.472;-122.822;2022-07-05T02:33:32;23.40;85.80
6375;DHT22;35400;45.472;-122.822;2022-07-05T02:36:08;23.40;86.30
6375;DHT22;35400;45.472;-122.822;2022-07-05T02:38:36;23.30;86.50
6375;DHT22;35400;45.472;-122.822;2022-07-05T02:41:06;23.30;86.70
6375;DHT22;35400;45.472;-122.822;2022-07-05T02:43:36;23.30;86.80
6375;DHT22;35400;45.472;-122.822;2022-07-05T02:46:04;23.30;86.60
6375;DHT22;35400;45.472;-122.822;2022-07-05T02:48:32;23.30;86.70
6375;DHT22;35400;45.472;-122.822;2022-07-05T02:51:03;23.30;87.20
6375;DHT22;35400;45.472;-122.822;2022-07-05T02:53:29;23.30;87.10
6375;DHT22;35400;45.472;-122.822;2022-07-05T02:55:57;23.20;87.30
6375;DHT22;35400;45.472;-122.822;2022-07-05T02:58:23;23.10;87.20
6375;DHT22;35400;45.472;-122.822;2022-07-05T03:00:49;23.10;87.40
6375;DHT22;35400;45.472;-122.822;2022-07-05T03:03:16;23.00;87.60
6375;DHT22;35400;45.472;-122.822;2022-07-05T03:05:43;23.00;87.60
6375;DHT22;35400;45.472;-122.822;2022-07-05T03:08:09;23.00;87.20
6375;DHT22;35400;45.472;-122.822;2022-07-05T03:10:36;23.00;86.70
6375;DHT22;35400;45.472;-122.822;2022-07-05T03:13:02;22.90;87.20
6375;DHT22;35400;45.472;-122.822;2022-07-05T03:15:29;22.90;87.00
6375;DHT22;35400;45.472;-122.822;2022-07-05T03:17:55;22.90;87.30
6375;DHT22;35400;45.472;-122.822;2022-07-05T03:20:22;22.80;87.50
6375;DHT22;35400;45.472;-122.822;2022-07-05T03:22:48;22.80;87.30
6375;DHT22;35400;45.472;-122.822;2022-07-05T03:25:14;22.80;87.20
6375;DHT22;35400;45.472;-122.822;2022-07-05T03:27:41;22.70;87.20
6375;DHT22;35400;45.472;-122.822;2022-07-05T03:30:08;22.70;87.10
6375;DHT22;35400;45.472;-122.822;2022-07-05T03:32:35;22.70;87.20
6375;DHT22;35400;45.472;-122.822;2022-07-05T03:35:01;22.60;88.00
6375;DHT22;35400;45.472;-122.822;2022-07-05T03:37:28;22.50;87.50
6375;DHT22;35400;45.472;-122.822;2022-07-05T03:39:54;22.40;87.70
6375;DHT22;35400;45.472;-122.822;2022-07-05T03:42:21;22.40;88.10
6375;DHT22;35400;45.472;-122.822;2022-07-05T03:44:47;22.30;88.30
6375;DHT22;35400;45.472;-122.822;2022-07-05T03:47:14;22.20;88.80
6375;DHT22;35400;45.472;-122.822;2022-07-05T03:49:41;22.10;89.20
6375;DHT22;35400;45.472;-122.822;2022-07-05T03:52:07;22.10;89.50
6375;DHT22;35400;45.472;-122.822;2022-07-05T03:54:33;22.00;89.50
6375;DHT22;35400;45.472;-122.822;2022-07-05T03:57:00;21.90;89.70
6375;DHT22;35400;45.472;-122.822;2022-07-05T03:59:26;21.80;90.00
6375;DHT22;35400;45.472;-122.822;2022-07-05T04:01:52;21.80;89.20
6375;DHT22;35400;45.472;-122.822;2022-07-05T04:04:19;21.70;89.20
6375;DHT22;35400;45.472;-122.822;2022-07-05T04:06:45;21.70;89.50
6375;DHT22;35400;45.472;-122.822;2022-07-05T04:09:11;21.60;89.70
6375;DHT22;35400;45.472;-122.822;2022-07-05T04:11:38;21.60;89.70
6375;DHT22;35400;45.472;-122.822;2022-07-05T04:14:04;21.40;89.50
6375;DHT22;35400;45.472;-122.822;2022-07-05T04:16:31;21.40;89.60
6375;DHT22;35400;45.472;-122.822;2022-07-05T04:18:57;21.30;89.80
6375;DHT22;35400;45.472;-122.822;2022-07-05T04:21:23;21.20;90.00
6375;DHT22;35400;45.472;-122.822;2022-07-05T04:23:50;21.20;90.10
6375;DHT22;35400;45.472;-122.822;2022-07-05T04:26:16;21.10;90.20
6375;DHT22;35400;45.472;-122.822;2022-07-05T04:28:43;21.00;90.20
6375;DHT22;35400;45.472;-122.822;2022-07-05T04:31:09;21.00;90.50
6375;DHT22;35400;45.472;-122.822;2022-07-05T04:33:36;20.90;90.50
6375;DHT22;35400;45.472;-122.822;2022-07-05T04:36:03;20.90;90.60
6375;DHT22;35400;45.472;-122.822;2022-07-05T04:38:29;20.80;90.90
6375;DHT22;35400;45.472;-122.822;2022-07-05T04:40:55;20.70;91.00
6375;DHT22;35400;45.472;-122.822;2022-07-05T04:43:22;20.70;91.10
6375;DHT22;35400;45.472;-122.822;2022-07-05T04:45:48;20.60;91.20
6375;DHT22;35400;45.472;-122.822;2022-07-05T04:48:15;20.60;91.30
6375;DHT22;35400;45.472;-122.822;2022-07-05T04:50:41;20.50;91.50
6375;DHT22;35400;45.472;-122.822;2022-07-05T04:53:07;20.50;91.80
6375;DHT22;35400;45.472;-122.822;2022-07-05T04:55:35;20.40;91.90
6375;DHT22;35400;45.472;-122.822;2022-07-05T04:58:02;20.30;92.10
6375;DHT22;35400;45.472;-122.822;2022-07-05T05:00:28;20.20;92.30
6375;DHT22;35400;45.472;-122.822;2022-07-05T05:02:55;20.20;92.60
6375;DHT22;35400;45.472;-122.822;2022-07-05T05:05:21;20.10;92.70
6375;DHT22;35400;45.472;-122.822;2022-07-05T05:07:47;20.00;92.80
6375;DHT22;35400;45.472;-122.822;2022-07-05T05:10:14;20.00;93.00
6375;DHT22;35400;45.472;-122.822;2022-07-05T05:12:40;19.90;93.00
6375;DHT22;35400;45.472;-122.822;2022-07-05T05:15:07;19.80;93.20
6375;DHT22;35400;45.472;-122.822;2022-07-05T05:20:11;19.70;93.40
6375;DHT22;35400;45.472;-122.822;2022-07-05T05:22:38;19.70;93.60
6375;DHT22;35400;45.472;-122.822;2022-07-05T05:25:05;19.60;93.60
6375;DHT22;35400;45.472;-122.822;2022-07-05T05:27:32;19.50;93.80
6375;DHT22;35400;45.472;-122.822;2022-07-05T05:29:58;19.50;93.90
6375;DHT22;35400;45.472;-122.822;2022-07-05T05:32:25;19.40;94.00
6375;DHT22;35400;45.472;-122.822;2022-07-05T05:34:51;19.30;94.20
6375;DHT22;35400;45.472;-122.822;2022-07-05T05:37:18;19.30;94.30
6375;DHT22;35400;45.472;-122.822;2022-07-05T05:39:44;19.20;94.30
6375;DHT22;35400;45.472;-122.822;2022-07-05T05:42:10;19.20;94.70
6375;DHT22;35400;45.472;-122.822;2022-07-05T05:44:37;19.10;94.80
6375;DHT22;35400;45.472;-122.822;2022-07-05T05:47:03;19.10;94.80
6375;DHT22;35400;45.472;-122.822;2022-07-05T05:49:30;19.10;94.90
6375;DHT22;35400;45.472;-122.822;2022-07-05T05:51:56;19.00;95.10
6375;DHT22;35400;45.472;-122.822;2022-07-05T05:54:23;18.90;95.30
6375;DHT22;35400;45.472;-122.822;2022-07-05T05:56:49;18.90;95.30
6375;DHT22;35400;45.472;-122.822;2022-07-05T05:59:15;18.80;95.50
6375;DHT22;35400;45.472;-122.822;2022-07-05T06:01:42;18.80;95.60
6375;DHT22;35400;45.472;-122.822;2022-07-05T06:04:08;18.70;95.50
6375;DHT22;35400;45.472;-122.822;2022-07-05T06:06:34;18.70;95.70
6375;DHT22;35400;45.472;-122.822;2022-07-05T06:09:01;18.60;95.80
6375;DHT22;35400;45.472;-122.822;2022-07-05T06:11:27;18.60;95.80
6375;DHT22;35400;45.472;-122.822;2022-07-05T06:13:53;18.60;95.90
6375;DHT22;35400;45.472;-122.822;2022-07-05T06:16:20;18.50;95.90
6375;DHT22;35400;45.472;-122.822;2022-07-05T06:18:46;18.50;96.00
6375;DHT22;35400;45.472;-122.822;2022-07-05T06:21:13;18.50;96.10
6375;DHT22;35400;45.472;-122.822;2022-07-05T06:23:39;18.40;96.20
6375;DHT22;35400;45.472;-122.822;2022-07-05T06:26:06;18.40;96.70
6375;DHT22;35400;45.472;-122.822;2022-07-05T06:28:32;18.30;96.40
6375;DHT22;35400;45.472;-122.822;2022-07-05T06:30:59;18.20;96.50
6375;DHT22;35400;45.472;-122.822;2022-07-05T06:33:25;18.20;96.70
6375;DHT22;35400;45.472;-122.822;2022-07-05T06:35:53;18.20;97.10
6375;DHT22;35400;45.472;-122.822;2022-07-05T06:38:20;18.20;97.40
6375;DHT22;35400;45.472;-122.822;2022-07-05T06:40:46;18.10;97.40
6375;DHT22;35400;45.472;-122.822;2022-07-05T06:43:14;18.10;97.50
6375;DHT22;35400;45.472;-122.822;2022-07-05T06:45:40;18.10;97.70
6375;DHT22;35400;45.472;-122.822;2022-07-05T06:48:09;18.00;97.80
6375;DHT22;35400;45.472;-122.822;2022-07-05T06:50:38;18.00;97.90
6375;DHT22;35400;45.472;-122.822;2022-07-05T06:53:05;17.90;98.00
6375;DHT22;35400;45.472;-122.822;2022-07-05T06:55:33;17.90;98.10
6375;DHT22;35400;45.472;-122.822;2022-07-05T06:58:02;17.80;98.10
6375;DHT22;35400;45.472;-122.822;2022-07-05T07:00:29;17.80;98.20
6375;DHT22;35400;45.472;-122.822;2022-07-05T07:02:56;17.80;98.40
6375;DHT22;35400;45.472;-122.822;2022-07-05T07:05:22;17.70;98.40
6375;DHT22;35400;45.472;-122.822;2022-07-05T07:07:49;17.70;98.60
6375;DHT22;35400;45.472;-122.822;2022-07-05T07:10:33;17.70;98.90
6375;DHT22;35400;45.472;-122.822;2022-07-05T07:13:00;17.60;99.10
6375;DHT22;35400;45.472;-122.822;2022-07-05T07:15:30;17.60;99.20
6375;DHT22;35400;45.472;-122.822;2022-07-05T07:17:57;17.60;99.40
6375;DHT22;35400;45.472;-122.822;2022-07-05T07:20:23;17.50;99.40
6375;DHT22;35400;45.472;-122.822;2022-07-05T07:22:50;17.50;99.60
6375;DHT22;35400;45.472;-122.822;2022-07-05T07:25:16;17.40;99.70
6375;DHT22;35400;45.472;-122.822;2022-07-05T07:27:47;17.40;99.90
6375;DHT22;35400;45.472;-122.822;2022-07-05T07:30:17;17.40;99.90
6375;DHT22;35400;45.472;-122.822;2022-07-05T07:32:45;17.30;99.90
6375;DHT22;35400;45.472;-122.822;2022-07-05T07:35:12;17.30;99.90
6375;DHT22;35400;45.472;-122.822;2022-07-05T07:37:38;17.30;99.90
6375;DHT22;35400;45.472;-122.822;2022-07-05T07:40:06;17.20;99.90
6375;DHT22;35400;45.472;-122.822;2022-07-05T07:42:33;17.20;99.90
6375;DHT22;35400;45.472;-122.822;2022-07-05T07:44:59;17.20;99.90
6375;DHT22;35400;45.472;-122.822;2022-07-05T07:47:36;17.10;99.90
6375;DHT22;35400;45.472;-122.822;2022-07-05T07:50:04;17.10;99.90
6375;DHT22;35400;45.472;-122.822;2022-07-05T07:52:31;17.10;99.90
6375;DHT22;35400;45.472;-122.822;2022-07-05T07:55:00;17.00;99.90
6375;DHT22;35400;45.472;-122.822;2022-07-05T07:57:27;16.90;99.90
6375;DHT22;35400;45.472;-122.822;2022-07-05T07:59:53;16.90;99.90
6375;DHT22;35400;45.472;-122.822;2022-07-05T08:02:21;16.90;99.90
6375;DHT22;35400;45.472;-122.822;2022-07-05T08:04:50;16.80;99.90
6375;DHT22;35400;45.472;-122.822;2022-07-05T08:07:16;16.80;99.90
6375;DHT22;35400;45.472;-122.822;2022-07-05T08:09:44;16.70;99.90
6375;DHT22;35400;45.472;-122.822;2022-07-05T08:12:11;16.70;99.90
6375;DHT22;35400;45.472;-122.822;2022-07-05T08:14:38;16.60;99.90
6375;DHT22;35400;45.472;-122.822;2022-07-05T08:17:04;16.60;99.90
6375;DHT22;35400;45.472;-122.822;2022-07-05T08:19:34;16.50;99.90
6375;DHT22;35400;45.472;-122.822;2022-07-05T08:22:19;16.50;99.90
6375;DHT22;35400;45.472;-122.822;2022-07-05T08:24:46;16.40;99.90
6375;DHT22;35400;45.472;-122.822;2022-07-05T08:27:12;16.40;99.90
6375;DHT22;35400;45.472;-122.822;2022-07-05T08:29:39;16.30;99.90
6375;DHT22;35400;45.472;-122.822;2022-07-05T08:32:06;16.30;99.90
6375;DHT22;35400;45.472;-122.822;2022-07-05T08:34:32;16.30;99.90
6375;DHT22;35400;45.472;-122.822;2022-07-05T08:37:00;16.30;99.90
6375;DHT22;35400;45.472;-122.822;2022-07-05T08:39:28;16.30;99.90
6375;DHT22;35400;45.472;-122.822;2022-07-05T08:41:55;16.30;99.90
6375;DHT22;35400;45.472;-122.822;2022-07-05T08:44:23;16.30;99.90
6375;DHT22;35400;45.472;-122.822;2022-07-05T08:46:50;16.30;99.90
6375;DHT22;35400;45.472;-122.822;2022-07-05T08:49:28;16.30;99.90
6375;DHT22;35400;45.472;-122.822;2022-07-05T08:51:56;16.30;99.90
6375;DHT22;35400;45.472;-122.822;2022-07-05T08:54:24;16.30;99.90
6375;DHT22;35400;45.472;-122.822;2022-07-05T08:56:51;16.30;99.90
6375;DHT22;35400;45.472;-122.822;2022-07-05T08:59:17;16.30;99.90
6375;DHT22;35400;45.472;-122.822;2022-07-05T09:01:45;16.30;99.90
6375;DHT22;35400;45.472;-122.822;2022-07-05T09:04:13;16.30;99.90
6375;DHT22;35400;45.472;-122.822;2022-07-05T09:06:42;16.30;99.90
6375;DHT22;35400;45.472;-122.822;2022-07-05T09:09:11;16.30;99.90
6375;DHT22;35400;45.472;-122.822;2022-07-05T09:11:40;16.30;99.90
6375;DHT22;35400;45.472;-122.822;2022-07-05T09:14:20;16.30;99.90
6375;DHT22;35400;45.472;-122.822;2022-07-05T09:16:48;16.30;99.90
6375;DHT22;35400;45.472;-122.822;2022-07-05T09:19:14;16.30;99.90
6375;DHT22;35400;45.472;-122.822;2022-07-05T09:21:41;16.40;99.90
6375;DHT22;35400;45.472;-122.822;2022-07-05T09:24:12;16.40;99.90
6375;DHT22;35400;45.472;-122.822;2022-07-05T09:26:39;16.40;99.90
6375;DHT22;35400;45.472;-122.822;2022-07-05T09:29:08;16.40;99.90
6375;DHT22;35400;45.472;-122.822;2022-07-05T09:31:37;16.40;99.90
6375;DHT22;35400;45.472;-122.822;2022-07-05T09:34:11;16.40;99.90
6375;DHT22;35400;45.472;-122.822;2022-07-05T09:36:51;16.50;99.90
6375;DHT22;35400;45.472;-122.822;2022-07-05T09:39:34;16.50;99.90
6375;DHT22;35400;45.472;-122.822;2022-07-05T09:42:19;16.40;99.90
6375;DHT22;35400;45.472;-122.822;2022-07-05T09:44:56;16.50;99.90
6375;DHT22;35400;45.472;-122.822;2022-07-05T09:47:32;16.50;99.90
6375;DHT22;35400;45.472;-122.822;2022-07-05T09:49:59;16.50;99.90
6375;DHT22;35400;45.472;-122.822;2022-07-05T09:52:37;16.40;99.90
6375;DHT22;35400;45.472;-122.822;2022-07-05T09:55:11;16.40;99.90
6375;DHT22;35400;45.472;-122.822;2022-07-05T09:57:39;16.40;99.90
6375;DHT22;35400;45.472;-122.822;2022-07-05T10:00:11;16.40;99.90
6375;DHT22;35400;45.472;-122.822;2022-07-05T10:02:48;16.40;99.90
6375;DHT22;35400;45.472;-122.822;2022-07-05T10:05:19;16.40;99.90
6375;DHT22;35400;45.472;-122.822;2022-07-05T10:07:50;16.40;99.90
6375;DHT22;35400;45.472;-122.822;2022-07-05T10:10:21;16.40;99.90
6375;DHT22;35400;45.472;-122.822;2022-07-05T10:12:50;16.40;99.90
6375;DHT22;35400;45.472;-122.822;2022-07-05T10:15:20;16.30;99.90
6375;DHT22;35400;45.472;-122.822;2022-07-05T10:17:53;16.30;99.90
6375;DHT22;35400;45.472;-122.822;2022-07-05T10:20:25;16.30;99.90
6375;DHT22;35400;45.472;-122.822;2022-07-05T10:22:56;16.30;99.90
6375;DHT22;35400;45.472;-122.822;2022-07-05T10:25:23;16.30;99.90
6375;DHT22;35400;45.472;-122.822;2022-07-05T10:27:54;16.30;99.90
6375;DHT22;35400;45.472;-122.822;2022-07-05T10:30:24;16.20;99.90
6375;DHT22;35400;45.472;-122.822;2022-07-05T10:32:51;16.30;99.90
6375;DHT22;35400;45.472;-122.822;2022-07-05T10:35:18;16.20;99.90
6375;DHT22;35400;45.472;-122.822;2022-07-05T10:37:47;16.20;99.90
6375;DHT22;35400;45.472;-122.822;2022-07-05T10:40:15;16.20;99.90
6375;DHT22;35400;45.472;-122.822;2022-07-05T10:42:46;16.10;99.90
6375;DHT22;35400;45.472;-122.822;2022-07-05T10:50:55;16.00;99.90
6375;DHT22;35400;45.472;-122.822;2022-07-05T10:53:25;16.00;99.90
6375;DHT22;35400;45.472;-122.822;2022-07-05T10:55:55;15.90;99.90
6375;DHT22;35400;45.472;-122.822;2022-07-05T11:03:55;15.90;99.90
6375;DHT22;35400;45.472;-122.822;2022-07-05T11:22:25;15.70;99.90
6375;DHT22;35400;45.472;-122.822;2022-07-05T11:24:52;15.70;99.90
6375;DHT22;35400;45.472;-122.822;2022-07-05T11:27:19;15.70;99.90
6375;DHT22;35400;45.472;-122.822;2022-07-05T11:29:50;15.70;99.90
6375;DHT22;35400;45.472;-122.822;2022-07-05T11:34:54;15.70;99.90
6375;DHT22;35400;45.472;-122.822;2022-07-05T11:37:26;15.70;99.90
6375;DHT22;35400;45.472;-122.822;2022-07-05T11:42:47;15.70;99.90
6375;DHT22;35400;45.472;-122.822;2022-07-05T11:45:14;15.70;99.90
6375;DHT22;35400;45.472;-122.822;2022-07-05T11:47:41;15.80;99.90
6375;DHT22;35400;45.472;-122.822;2022-07-05T11:50:08;15.80;99.90
6375;DHT22;35400;45.472;-122.822;2022-07-05T11:52:35;15.80;99.90
6375;DHT22;35400;45.472;-122.822;2022-07-05T11:55:05;15.80;99.90
6375;DHT22;35400;45.472;-122.822;2022-07-05T11:57:32;15.80;99.90
6375;DHT22;35400;45.472;-122.822;2022-07-05T11:59:59;15.90;99.90
6375;DHT22;35400;45.472;-122.822;2022-07-05T12:02:25;15.80;99.90
6375;DHT22;35400;45.472;-122.822;2022-07-05T12:04:53;15.80;99.90
6375;DHT22;35400;45.472;-122.822;2022-07-05T12:07:33;15.80;99.90
6375;DHT22;35400;45.472;-122.822;2022-07-05T12:10:02;15.80;99.90
6375;DHT22;35400;45.472;-122.822;2022-07-05T12:12:47;15.80;99.90
6375;DHT22;35400;45.472;-122.822;2022-07-05T12:15:15;15.80;99.90
6375;DHT22;35400;45.472;-122.822;2022-07-05T12:17:47;15.80;99.90
6375;DHT22;35400;45.472;-122.822;2022-07-05T12:20:19;15.80;99.90
6375;DHT22;35400;45.472;-122.822;2022-07-05T12:22:46;15.70;99.90
6375;DHT22;35400;45.472;-122.822;2022-07-05T12:25:21;15.70;99.90
6375;DHT22;35400;45.472;-122.822;2022-07-05T12:27:49;15.70;99.90
6375;DHT22;35400;45.472;-122.822;2022-07-05T12:30:16;15.70;99.90
6375;DHT22;35400;45.472;-122.822;2022-07-05T12:32:54;15.70;99.90
6375;DHT22;35400;45.472;-122.822;2022-07-05T12:35:40;15.70;99.90
6375;DHT22;35400;45.472;-122.822;2022-07-05T12:38:11;15.60;99.90
6375;DHT22;35400;45.472;-122.822;2022-07-05T12:40:41;15.60;99.90
6375;DHT22;35400;45.472;-122.822;2022-07-05T12:43:16;15.60;99.90
6375;DHT22;35400;45.472;-122.822;2022-07-05T12:45:58;15.50;99.90
6375;DHT22;35400;45.472;-122.822;2022-07-05T12:48:35;15.50;99.90
6375;DHT22;35400;45.472;-122.822;2022-07-05T12:51:03;15.50;99.90
6375;DHT22;35400;45.472;-122.822;2022-07-05T12:53:30;15.50;99.90
6375;DHT22;35400;45.472;-122.822;2022-07-05T12:56:16;15.40;99.90
6375;DHT22;35400;45.472;-122.822;2022-07-05T12:59:03;15.40;99.90
6375;DHT22;35400;45.472;-122.822;2022-07-05T13:01:30;15.40;99.90
6375;DHT22;35400;45.472;-122.822;2022-07-05T13:04:17;15.40;99.90
6375;DHT22;35400;45.472;-122.822;2022-07-05T13:06:52;15.40;99.90
6375;DHT22;35400;45.472;-122.822;2022-07-05T13:12:13;15.40;99.90
6375;DHT22;35400;45.472;-122.822;2022-07-05T13:14:44;15.40;99.90
6375;DHT22;35400;45.472;-122.822;2022-07-05T13:17:12;15.50;99.90
6375;DHT22;35400;45.472;-122.822;2022-07-05T13:19:40;15.50;99.90
6375;DHT22;35400;45.472;-122.822;2022-07-05T13:22:07;15.60;99.90
6375;DHT22;35400;45.472;-122.822;2022-07-05T13:24:34;15.70;99.90
6375;DHT22;35400;45.472;-122.822;2022-07-05T13:27:01;15.70;99.90
6375;DHT22;35400;45.472;-122.822;2022-07-05T13:29:29;15.80;99.90
6375;DHT22;35400;45.472;-122.822;2022-07-05T13:31:55;15.80;99.90
6375;DHT22;35400;45.472;-122.822;2022-07-05T13:34:22;15.90;99.90
6375;DHT22;35400;45.472;-122.822;2022-07-05T13:36:55;15.90;99.90
6375;DHT22;35400;45.472;-122.822;2022-07-05T13:39:23;16.00;99.90
6375;DHT22;35400;45.472;-122.822;2022-07-05T13:41:51;16.00;99.90
6375;DHT22;35400;45.472;-122.822;2022-07-05T13:44:20;16.00;99.90
6375;DHT22;35400;45.472;-122.822;2022-07-05T13:46:46;16.10;99.90
6375;DHT22;35400;45.472;-122.822;2022-07-05T13:49:13;16.10;99.90
6375;DHT22;35400;45.472;-122.822;2022-07-05T13:51:40;16.10;99.90
6375;DHT22;35400;45.472;-122.822;2022-07-05T13:54:07;16.20;99.90
6375;DHT22;35400;45.472;-122.822;2022-07-05T13:56:33;16.20;99.90
6375;DHT22;35400;45.472;-122.822;2022-07-05T13:59:02;16.20;99.90
6375;DHT22;35400;45.472;-122.822;2022-07-05T14:01:29;16.20;99.90
6375;DHT22;35400;45.472;-122.822;2022-07-05T14:03:57;16.30;99.90
6375;DHT22;35400;45.472;-122.822;2022-07-05T14:06:31;16.30;99.90
6375;DHT22;35400;45.472;-122.822;2022-07-05T14:08:59;16.30;99.90
6375;DHT22;35400;45.472;-122.822;2022-07-05T14:11:26;16.40;99.90
6375;DHT22;35400;45.472;-122.822;2022-07-05T14:13:56;16.40;99.90
6375;DHT22;35400;45.472;-122.822;2022-07-05T14:16:23;16.50;99.90
6375;DHT22;35400;45.472;-122.822;2022-07-05T14:18:50;16.50;99.90
6375;DHT22;35400;45.472;-122.822;2022-07-05T14:21:19;16.60;99.90
6375;DHT22;35400;45.472;-122.822;2022-07-05T14:23:45;16.60;99.90
6375;DHT22;35400;45.472;-122.822;2022-07-05T14:26:15;16.60;99.90
6375;DHT22;35400;45.472;-122.822;2022-07-05T14:28:42;16.60;99.90
6375;DHT22;35400;45.472;-122.822;2022-07-05T14:31:09;16.70;99.90
6375;DHT22;35400;45.472;-122.822;2022-07-05T14:33:36;16.60;99.90
6375;DHT22;35400;45.472;-122.822;2022-07-05T14:36:03;16.70;99.90
6375;DHT22;35400;45.472;-122.822;2022-07-05T14:38:30;16.70;99.90
6375;DHT22;35400;45.472;-122.822;2022-07-05T14:40:57;16.80;99.90
6375;DHT22;35400;45.472;-122.822;2022-07-05T14:43:23;16.80;99.90
6375;DHT22;35400;45.472;-122.822;2022-07-05T14:45:49;16.90;99.90
6375;DHT22;35400;45.472;-122.822;2022-07-05T14:48:16;16.90;99.90
6375;DHT22;35400;45.472;-122.822;2022-07-05T14:50:42;17.00;99.90
6375;DHT22;35400;45.472;-122.822;2022-07-05T14:53:13;17.10;99.90
6375;DHT22;35400;45.472;-122.822;2022-07-05T14:55:39;17.10;99.90
6375;DHT22;35400;45.472;-122.822;2022-07-05T14:58:06;17.20;99.90
6375;DHT22;35400;45.472;-122.822;2022-07-05T15:00:32;17.30;99.90
6375;DHT22;35400;45.472;-122.822;2022-07-05T15:02:59;17.30;99.90
6375;DHT22;35400;45.472;-122.822;2022-07-05T15:05:25;17.40;99.90
6375;DHT22;35400;45.472;-122.822;2022-07-05T15:07:51;17.50;99.90
6375;DHT22;35400;45.472;-122.822;2022-07-05T15:10:18;17.60;99.90
6375;DHT22;35400;45.472;-122.822;2022-07-05T15:12:44;17.60;99.90
6375;DHT22;35400;45.472;-122.822;2022-07-05T15:15:11;17.70;99.90
6375;DHT22;35400;45.472;-122.822;2022-07-05T15:17:37;17.80;99.90
6375;DHT22;35400;45.472;-122.822;2022-07-05T15:20:04;17.90;99.90
6375;DHT22;35400;45.472;-122.822;2022-07-05T15:22:30;18.00;99.90
6375;DHT22;35400;45.472;-122.822;2022-07-05T15:24:57;18.10;99.90
6375;DHT22;35400;45.472;-122.822;2022-07-05T15:27:23;18.20;99.90
6375;DHT22;35400;45.472;-122.822;2022-07-05T15:29:51;18.30;99.90
6375;DHT22;35400;45.472;-122.822;2022-07-05T15:32:18;18.40;99.90
6375;DHT22;35400;45.472;-122.822;2022-07-05T15:34:44;18.40;99.90
6375;DHT22;35400;45.472;-122.822;2022-07-05T15:37:11;18.50;99.90
6375;DHT22;35400;45.472;-122.822;2022-07-05T15:39:37;18.60;99.90
6375;DHT22;35400;45.472;-122.822;2022-07-05T15:42:05;18.70;99.90
6375;DHT22;35400;45.472;-122.822;2022-07-05T15:44:31;18.70;99.90
6375;DHT22;35400;45.472;-122.822;2022-07-05T15:46:58;18.80;99.90